Time;durP1;ratioP1;P1;durP2;ratioP2;P2;SDS_P1;SDS_P2;PMS_P1;PMS_P2;Temp;Humidity;BMP_temperature;BMP_pressure;BME280_temperature;BME280_humidity;BME280_pressure;Samples;Min_cycle;Max_cycle;Signal;HPM_P1;HPM_P2
2021/10/09 00:02:22;;;;;;;14.35;11.33;;;;;;;4.00;59.00;101655.55;1639429;86;21517;-72
2021/10/09 00:04:48;;;;;;;13.53;10.35;;;;;;;3.96;59.06;101657.70;1666639;85;21101;-74
2021/10/09 00:07:14;;;;;;;16.42;13.00;;;;;;;3.93;59.29;101654.04;1655636;85;21017;-70
2021/10/09 00:09:42;;;;;;;21.00;11.45;;;;;;;3.90;59.44;101657.83;1668034;85;21845;-71
2021/10/09 00:12:09;;;;;;;17.95;10.82;;;;;;;3.88;59.61;101653.19;1672984;85;21028;-70
2021/10/09 00:14:35;;;;;;;17.25;9.40;;;;;;;3.83;59.63;101653.31;1680753;85;20993;-70
2021/10/09 00:17:01;;;;;;;15.95;10.13;;;;;;;3.84;59.66;101653.63;1680730;85;20917;-70
2021/10/09 00:19:28;;;;;;;12.03;9.75;;;;;;;3.86;59.71;101652.98;1675719;84;21072;-70
2021/10/09 00:21:54;;;;;;;14.40;10.68;;;;;;;3.87;59.69;101647.52;1685877;84;21529;-70
2021/10/09 00:24:20;;;;;;;16.02;10.40;;;;;;;3.84;59.96;101646.48;1707593;83;20982;-71
2021/10/09 00:26:47;;;;;;;19.92;11.00;;;;;;;3.81;60.02;101649.47;1721963;82;21040;-73
2021/10/09 00:29:15;;;;;;;20.37;10.13;;;;;;;3.78;60.20;101641.81;1716461;82;21016;-70
2021/10/09 00:31:41;;;;;;;17.32;10.30;;;;;;;3.74;60.42;101640.95;1715143;82;21023;-72
2021/10/09 00:34:08;;;;;;;15.28;11.22;;;;;;;3.73;60.40;101644.11;1715135;83;21136;-70
2021/10/09 00:36:34;;;;;;;17.70;13.58;;;;;;;3.73;60.43;101640.12;1694134;83;20993;-70
2021/10/09 00:39:01;;;;;;;16.70;11.63;;;;;;;3.74;60.55;101638.29;1707995;82;20953;-71
2021/10/09 00:41:27;;;;;;;22.25;11.97;;;;;;;3.72;60.77;101635.78;1743376;82;21088;-71
2021/10/09 00:43:53;;;;;;;16.00;11.30;;;;;;;3.68;60.99;101634.92;1743056;82;21017;-71
2021/10/09 00:46:20;;;;;;;19.48;11.63;;;;;;;3.61;61.18;101635.20;1743077;82;21174;-70
2021/10/09 00:48:47;;;;;;;14.93;11.35;;;;;;;3.61;61.22;101639.19;1733831;82;21008;-71
2021/10/09 00:51:13;;;;;;;17.75;10.98;;;;;;;3.59;61.42;101628.72;1718259;82;20998;-70
2021/10/09 00:53:40;;;;;;;17.30;12.40;;;;;;;3.61;61.42;101639.19;1725375;82;21084;-71
2021/10/09 00:56:08;;;;;;;16.42;12.03;;;;;;;3.62;61.25;101628.40;1722489;82;21033;-70
2021/10/09 00:58:37;;;;;;;14.23;11.95;;;;;;;3.62;61.45;101623.56;1736717;82;21650;-70
2021/10/09 01:01:05;;;;;;;18.55;10.38;;;;;;;3.62;61.49;101627.56;1689241;83;20976;-70
2021/10/09 01:03:31;;;;;;;16.95;12.63;;;;;;;3.57;61.54;101624.53;1693928;83;21105;-71
2021/10/09 01:05:58;;;;;;;15.80;12.78;;;;;;;3.58;61.59;101619.56;1714883;83;21521;-70
2021/10/09 01:08:25;;;;;;;13.72;11.60;;;;;;;3.53;61.74;101621.36;1719331;82;21459;-71
2021/10/09 01:10:51;;;;;;;12.80;10.50;;;;;;;3.51;62.04;101631.31;1680688;85;21151;-69
2021/10/09 01:13:18;;;;;;;17.40;11.22;;;;;;;3.52;61.85;101625.00;1709720;83;20966;-71
2021/10/09 01:15:46;;;;;;;16.73;10.25;;;;;;;3.51;61.89;101624.17;1689071;84;20934;-71
2021/10/09 01:18:20;;;;;;;12.25;10.53;;;;;;;3.52;62.09;101623.67;1678760;83;21022;-72
2021/10/09 01:20:52;;;;;;;16.17;10.43;;;;;;;3.46;62.48;101621.14;1675651;84;21565;-73
2021/10/09 01:23:22;;;;;;;16.50;10.53;;;;;;;3.43;62.43;101622.80;1674662;84;21823;-70
2021/10/09 01:25:49;;;;;;;14.40;10.65;;;;;;;3.40;62.59;101616.96;1674447;84;20981;-72
2021/10/09 01:28:15;;;;;;;13.15;10.38;;;;;;;3.33;62.93;101616.73;1676624;84;21036;-71
2021/10/09 01:30:42;;;;;;;13.72;9.73;;;;;;;3.29;63.21;101615.88;1674767;84;21538;-71
2021/10/09 01:33:08;;;;;;;17.20;10.78;;;;;;;3.27;63.08;101613.36;1658933;85;21034;-70
2021/10/09 01:35:49;;;;;;;12.55;10.80;;;;;;;3.28;63.29;101619.02;1677607;84;22262;-70
2021/10/09 01:38:18;;;;;;;13.55;10.35;;;;;;;3.28;63.25;101620.84;1696386;83;21085;-70
2021/10/09 01:40:45;;;;;;;13.20;9.25;;;;;;;3.27;63.37;101620.50;1702731;83;21034;-70
2021/10/09 01:43:14;;;;;;;22.70;11.40;;;;;;;3.24;63.54;101611.02;1670178;84;21494;-71
2021/10/09 01:45:41;;;;;;;12.95;10.75;;;;;;;3.24;63.48;101612.35;1702626;84;21054;-71
2021/10/09 01:48:08;;;;;;;15.10;9.50;;;;;;;3.20;63.60;101608.34;1699750;84;21880;-71
2021/10/09 01:50:34;;;;;;;14.03;9.98;;;;;;;3.23;63.57;101620.47;1662946;84;21014;-73
2021/10/09 01:53:05;;;;;;;13.85;9.68;;;;;;;3.22;63.79;101614.81;1686633;84;21559;-70
2021/10/09 01:55:37;;;;;;;14.25;9.93;;;;;;;3.20;63.75;101612.81;1676359;83;21511;-71
2021/10/09 01:58:05;;;;;;;15.90;9.73;;;;;;;3.18;63.96;101608.97;1642409;84;21614;-69
2021/10/09 02:00:33;;;;;;;16.67;11.63;;;;;;;3.13;64.12;101611.27;1642930;84;21531;-70
2021/10/09 02:03:03;;;;;;;13.98;10.25;;;;;;;3.10;64.19;101612.07;1702665;84;21005;-69
2021/10/09 02:05:28;;;;;;;13.30;9.68;;;;;;;3.05;64.49;101612.05;1686285;84;21058;-70
2021/10/09 02:07:55;;;;;;;17.37;9.93;;;;;;;3.03;64.59;101613.17;1701003;83;21046;-70
2021/10/09 02:10:22;;;;;;;12.07;10.08;;;;;;;3.00;64.46;101612.16;1681764;84;20982;-71
2021/10/09 02:12:53;;;;;;;14.83;10.32;;;;;;;3.01;64.59;101616.00;1704728;83;21470;-69
2021/10/09 02:15:29;;;;;;;11.70;9.48;;;;;;;2.97;64.70;101607.16;1717430;83;20925;-69
2021/10/09 02:18:07;;;;;;;14.68;10.60;;;;;;;2.96;64.86;101608.14;1695717;83;21072;-69
2021/10/09 02:25:49;;;;;;;14.05;11.25;;;;;;;2.94;64.82;101608.78;1647183;83;21198;-72
2021/10/09 02:28:21;;;;;;;15.03;10.70;;;;;;;2.94;64.99;101613.60;1704250;83;21072;-69
2021/10/09 02:30:48;;;;;;;15.50;9.90;;;;;;;2.92;65.08;101612.09;1717392;82;21027;-71
2021/10/09 02:33:16;;;;;;;15.05;10.88;;;;;;;2.92;64.98;101611.61;1717509;83;20977;-71
2021/10/09 02:35:43;;;;;;;15.30;9.90;;;;;;;2.93;65.02;101607.10;1717307;83;21014;-70
2021/10/09 02:38:10;;;;;;;12.28;10.08;;;;;;;2.93;65.10;101603.11;1674557;85;21273;-70
2021/10/09 02:40:41;;;;;;;15.15;10.40;;;;;;;2.91;65.18;101601.96;1688873;83;21572;-71
2021/10/09 02:43:08;;;;;;;17.92;8.80;;;;;;;2.86;65.39;101607.39;1690897;83;20985;-73
2021/10/09 02:45:34;;;;;;;13.78;9.60;;;;;;;2.80;65.61;101600.86;1717500;83;21530;-72
2021/10/09 02:48:05;;;;;;;13.68;10.38;;;;;;;2.78;65.66;101605.48;1675976;85;21017;-72
2021/10/09 02:50:34;;;;;;;12.45;9.33;;;;;;;2.75;65.81;101615.58;1689036;83;21096;-72
2021/10/09 02:53:00;;;;;;;13.18;10.08;;;;;;;2.73;65.93;101610.93;1673105;83;20965;-72
2021/10/09 02:55:27;;;;;;;17.23;10.45;;;;;;;2.72;65.90;101608.77;1688955;84;20976;-72
2021/10/09 02:57:54;;;;;;;14.00;10.50;;;;;;;2.71;65.99;101610.23;1677819;83;21708;-71
2021/10/09 03:00:20;;;;;;;8.78;7.83;;;;;;;2.70;66.06;101612.55;1689050;85;21552;-72
2021/10/09 03:02:47;;;;;;;16.90;9.40;;;;;;;2.74;65.93;101612.58;1688878;83;21358;-72
2021/10/09 03:05:14;;;;;;;12.68;9.28;;;;;;;2.77;65.77;101620.27;1678491;83;20906;-72
2021/10/09 03:07:42;;;;;;;12.40;8.08;;;;;;;2.78;65.88;101617.44;1681584;83;21100;-72
2021/10/09 03:10:09;;;;;;;11.25;8.68;;;;;;;2.77;65.88;101625.58;1673352;83;21100;-71
2021/10/09 03:12:36;;;;;;;12.23;7.97;;;;;;;2.75;65.84;101616.42;1689013;84;21028;-71
2021/10/09 03:15:05;;;;;;;10.35;8.65;;;;;;;2.76;65.82;101615.93;1651570;85;21091;-72
2021/10/09 03:17:32;;;;;;;21.77;10.77;;;;;;;2.70;65.96;101614.70;1700152;82;21569;-70
2021/10/09 03:19:59;;;;;;;13.50;9.45;;;;;;;2.67;66.20;101614.19;1652734;85;21027;-70
2021/10/09 03:22:26;;;;;;;16.50;8.55;;;;;;;2.61;66.37;101627.57;1665870;85;21025;-71
2021/10/09 03:24:52;;;;;;;20.92;9.55;;;;;;;2.61;66.29;101620.93;1660712;84;21037;-71
2021/10/09 03:27:18;;;;;;;12.07;9.58;;;;;;;2.63;66.24;101621.62;1684703;84;21081;-71
2021/10/09 03:29:46;;;;;;;12.43;8.93;;;;;;;2.66;66.20;101616.00;1658392;85;21490;-71
2021/10/09 03:32:13;;;;;;;19.53;8.30;;;;;;;2.63;66.30;101609.19;1709100;83;21476;-70
2021/10/09 03:34:39;;;;;;;15.83;9.08;;;;;;;2.58;66.41;101620.75;1722519;82;21048;-71
2021/10/09 03:37:07;;;;;;;13.00;9.13;;;;;;;2.55;66.56;101614.39;1743130;82;21041;-71
2021/10/09 03:39:36;;;;;;;13.93;8.68;;;;;;;2.48;66.92;101617.81;1721166;82;21772;-72
2021/10/09 03:42:07;;;;;;;13.33;9.27;;;;;;;2.39;67.25;101622.21;1714911;83;20940;-72
2021/10/09 03:44:35;;;;;;;15.37;10.27;;;;;;;2.36;67.35;101618.51;1714902;82;21559;-72
2021/10/09 03:47:16;;;;;;;14.50;9.43;;;;;;;2.33;67.51;101611.34;1694323;83;20969;-71
2021/10/09 03:52:50;;;;;;;18.50;9.93;;;;;;;2.28;67.81;101617.09;1639130;85;21230;-71
2021/10/09 03:54:39;;;;;;;14.40;9.83;;;;;;;2.25;67.79;101620.06;1658011;85;21044;-70
2021/10/09 03:57:05;;;;;;;14.23;9.00;;;;;;;2.25;67.92;101621.39;1680689;84;20930;-70
2021/10/09 03:59:32;;;;;;;16.00;8.70;;;;;;;2.22;68.08;101625.65;1702413;84;21515;-70
2021/10/09 04:01:59;;;;;;;12.03;8.67;;;;;;;2.23;67.97;101629.14;1718159;82;21009;-70
2021/10/09 04:04:28;;;;;;;18.53;10.20;;;;;;;2.22;68.07;101631.45;1718144;82;21801;-70
2021/10/09 04:06:54;;;;;;;16.30;10.80;;;;;;;2.18;68.22;101626.45;1744984;82;21024;-70
2021/10/09 04:09:21;;;;;;;16.73;9.83;;;;;;;2.14;68.44;101635.69;1724403;82;21074;-70
2021/10/09 04:11:48;;;;;;;13.80;8.83;;;;;;;2.11;68.39;101639.95;1653132;86;21060;-70
2021/10/09 04:14:15;;;;;;;11.43;9.60;;;;;;;2.15;68.40;101632.55;1680177;85;21103;-69
2021/10/09 04:16:43;;;;;;;10.73;8.07;;;;;;;2.14;68.44;101630.38;1644989;87;20941;-69
2021/10/09 04:19:11;;;;;;;12.82;9.08;;;;;;;2.14;68.50;101632.20;1655458;85;21561;-71
2021/10/09 04:21:37;;;;;;;18.13;11.10;;;;;;;2.14;68.36;101635.69;1626165;86;21573;-70
2021/10/09 04:24:05;;;;;;;15.83;9.60;;;;;;;2.18;68.32;101637.55;1620151;87;21041;-71
2021/10/09 04:26:32;;;;;;;19.07;10.70;;;;;;;2.14;68.50;101632.20;1626004;86;21033;-71
2021/10/09 04:29:00;;;;;;;12.83;8.07;;;;;;;2.14;68.35;101644.98;1653941;85;21873;-71
2021/10/09 04:31:27;;;;;;;20.67;8.70;;;;;;;2.14;68.49;101639.67;1618945;87;21675;-70
2021/10/09 04:33:55;;;;;;;16.07;10.23;;;;;;;2.14;68.50;101641.48;1675691;85;21006;-70
2021/10/09 04:36:21;;;;;;;18.57;11.07;;;;;;;2.15;68.49;101652.45;1633192;85;21601;-70
2021/10/09 04:38:49;;;;;;;14.20;12.30;;;;;;;2.16;68.40;101640.83;1667737;85;21001;-71
2021/10/09 04:41:16;;;;;;;17.63;12.00;;;;;;;2.15;68.42;101650.64;1680529;85;21248;-70
2021/10/09 04:43:42;;;;;;;18.53;10.13;;;;;;;2.13;68.55;101655.25;1680364;84;21127;-71
2021/10/09 04:46:09;;;;;;;13.43;9.03;;;;;;;2.14;68.52;101658.74;1672308;85;21013;-71
2021/10/09 04:48:36;;;;;;;11.27;8.43;;;;;;;2.15;68.55;101659.09;1688004;84;21017;-70
2021/10/09 04:51:02;;;;;;;13.13;8.43;;;;;;;2.18;68.45;101660.11;1658678;85;21013;-71
2021/10/09 04:53:30;;;;;;;14.47;9.85;;;;;;;2.22;68.32;101662.81;1674602;84;21058;-70
2021/10/09 04:55:57;;;;;;;21.57;10.33;;;;;;;2.25;68.18;101661.22;1676189;84;21376;-71
2021/10/09 04:58:23;;;;;;;16.37;9.53;;;;;;;2.24;68.13;101658.70;1658814;85;21479;-71
2021/10/09 05:00:51;;;;;;;12.23;10.37;;;;;;;2.27;68.20;101655.24;1675048;84;21138;-69
2021/10/09 05:03:18;;;;;;;19.93;9.83;;;;;;;2.28;68.17;101656.09;1658681;85;21363;-73
2021/10/09 05:05:45;;;;;;;19.70;9.73;;;;;;;2.27;68.11;101657.90;1674839;84;22162;-71
2021/10/09 05:08:12;;;;;;;15.77;9.47;;;;;;;2.32;67.98;101662.77;1699880;84;21009;-71
2021/10/09 05:10:42;;;;;;;13.10;8.85;;;;;;;2.37;67.93;101665.81;1702793;83;21507;-70
2021/10/09 05:13:10;;;;;;;16.73;11.63;;;;;;;2.42;67.79;101664.88;1686094;84;20946;-71
2021/10/09 05:15:41;;;;;;;21.40;15.07;;;;;;;2.47;67.61;101667.92;1701413;83;21048;-71
2021/10/09 05:18:11;;;;;;;18.35;11.85;;;;;;;2.52;67.49;101667.83;1680491;84;20999;-70
2021/10/09 05:20:38;;;;;;;24.20;13.70;;;;;;;2.53;67.33;101662.03;1715273;82;20980;-72
2021/10/09 05:23:04;;;;;;;20.92;13.88;;;;;;;2.55;67.29;101668.01;1716296;82;21075;-73
2021/10/09 05:25:33;;;;;;;17.73;10.07;;;;;;;2.58;67.12;101664.58;1736503;82;21021;-73
2021/10/09 05:28:06;;;;;;;14.65;10.48;;;;;;;2.64;66.96;101660.47;1675151;85;21514;-73
2021/10/09 05:30:30;;;;;;;13.50;9.18;;;;;;;2.68;66.86;101659.70;1658285;85;21333;-72
2021/10/09 05:33:12;;;;;;;18.52;9.53;;;;;;;2.72;66.63;101663.72;1714445;83;20972;-74
2021/10/09 05:35:28;;;;;;;17.00;10.43;;;;;;;2.78;66.50;101669.24;1656850;86;21088;-73
2021/10/09 05:37:54;;;;;;;18.70;9.83;;;;;;;2.82;66.09;101665.33;1722145;82;21079;-72
2021/10/09 05:40:21;;;;;;;10.80;8.83;;;;;;;2.85;65.91;101660.19;1743247;82;21178;-73
2021/10/09 05:42:48;;;;;;;18.02;9.35;;;;;;;2.89;65.63;101665.05;1740448;82;21288;-70
2021/10/09 05:45:14;;;;;;;21.50;8.63;;;;;;;2.95;65.53;101663.61;1716013;82;21033;-71
2021/10/09 05:47:44;;;;;;;17.02;9.90;;;;;;;3.00;65.17;101665.32;1727491;83;21051;-70
2021/10/09 05:50:12;;;;;;;16.48;10.18;;;;;;;3.03;65.14;101664.52;1710712;83;21057;-71
2021/10/09 05:52:49;;;;;;;15.63;9.13;;;;;;;3.05;65.20;101666.54;1696099;83;21561;-72
2021/10/09 05:55:21;;;;;;;12.73;8.58;;;;;;;3.08;64.91;101659.58;1704110;83;21164;-73
2021/10/09 05:58:04;;;;;;;16.48;10.70;;;;;;;3.15;64.71;101660.30;1672279;84;20946;-71
2021/10/09 07:00:07;;;;;;;11.78;6.60;;;;;;;5.08;58.01;101685.70;1717186;82;21009;-71
2021/10/09 07:02:40;;;;;;;15.10;7.62;;;;;;;5.19;57.65;101689.86;1716902;82;21106;-69
2021/10/09 07:05:08;;;;;;;8.88;5.90;;;;;;;5.26;57.56;101686.38;1742723;82;21059;-70
2021/10/09 07:07:41;;;;;;;11.43;6.92;;;;;;;5.35;57.61;101688.55;1722111;82;21064;-71
2021/10/09 07:10:10;;;;;;;12.13;7.90;;;;;;;5.43;57.69;101686.36;1736569;82;21560;-72
2021/10/09 07:12:38;;;;;;;8.63;6.58;;;;;;;5.53;57.24;101689.20;1655164;85;21525;-71
2021/10/09 07:15:06;;;;;;;13.88;7.35;;;;;;;5.63;57.00;101679.68;1664660;84;21059;-69
2021/10/09 07:17:33;;;;;;;17.02;9.03;;;;;;;5.74;56.63;101683.34;1720097;82;21055;-70
2021/10/09 07:20:00;;;;;;;22.35;6.85;;;;;;;5.84;55.29;101679.99;1742956;82;21084;-70
2021/10/09 07:22:27;;;;;;;15.10;7.28;;;;;;;5.95;53.82;101685.48;1736141;82;21032;-69
2021/10/09 07:24:54;;;;;;;15.90;5.75;;;;;;;6.10;53.86;101687.28;1675029;85;21604;-70
2021/10/09 07:27:20;;;;;;;16.52;5.50;;;;;;;6.19;53.57;101689.42;1741254;82;21209;-69
2021/10/09 07:29:47;;;;;;;7.17;5.12;;;;;;;6.30;53.22;101692.23;1738464;82;20968;-70
2021/10/09 07:32:14;;;;;;;10.95;4.67;;;;;;;6.41;52.15;101690.52;1671895;85;21020;-71
2021/10/09 07:34:40;;;;;;;10.60;5.90;;;;;;;6.53;52.10;101689.95;1731474;82;20933;-70
2021/10/09 07:37:07;;;;;;;8.48;5.05;;;;;;;6.67;51.30;101684.87;1694828;83;21050;-71
2021/10/09 07:39:33;;;;;;;10.68;6.97;;;;;;;6.80;51.04;101689.16;1697568;83;23405;-71
2021/10/09 07:42:00;;;;;;;13.65;6.30;;;;;;;6.89;50.63;101690.27;1720756;80;21099;-74
2021/10/09 07:44:26;;;;;;;15.00;5.90;;;;;;;7.02;50.42;101685.66;1721275;82;20946;-70
2021/10/09 07:47:09;;;;;;;18.37;7.92;;;;;;;7.15;49.73;101690.41;1734042;82;20941;-71
2021/10/09 07:49:37;;;;;;;14.07;5.50;;;;;;;7.29;48.57;101683.78;1717291;82;21561;-72
2021/10/09 07:52:04;;;;;;;6.00;4.08;;;;;;;7.44;47.47;101686.00;1720659;82;21062;-70
2021/10/09 07:54:30;;;;;;;11.48;4.58;;;;;;;7.57;47.49;101684.57;1743568;82;20933;-71
2021/10/09 07:56:57;;;;;;;7.65;4.92;;;;;;;7.68;47.22;101682.27;1720979;82;21004;-71
2021/10/09 07:59:28;;;;;;;12.07;5.58;;;;;;;7.83;46.70;101683.63;1739357;82;21209;-75
2021/10/09 08:01:55;;;;;;;17.48;5.78;;;;;;;7.99;46.82;101677.28;1744040;82;21020;-70
2021/10/09 08:04:21;;;;;;;8.93;4.37;;;;;;;8.13;46.17;101679.12;1706276;83;22011;-77
2021/10/09 08:06:50;;;;;;;12.63;4.55;;;;;;;8.31;44.50;101678.27;1714663;82;21040;-72
2021/10/09 08:09:17;;;;;;;16.70;5.72;;;;;;;8.50;43.85;101680.87;1697955;82;21057;-71
2021/10/09 08:11:43;;;;;;;11.55;5.08;;;;;;;8.69;42.97;101678.43;1728933;82;20957;-72
2021/10/09 08:14:10;;;;;;;11.38;4.62;;;;;;;8.85;42.01;101681.41;1695187;82;21012;-74
2021/10/09 08:16:38;;;;;;;13.18;5.28;;;;;;;8.98;41.57;101676.67;1720911;81;21220;-73
2021/10/09 08:19:04;;;;;;;5.75;3.90;;;;;;;9.09;40.04;101677.02;1717315;82;21060;-72
2021/10/09 08:21:37;;;;;;;11.75;4.20;;;;;;;9.24;39.58;101670.24;1731793;81;21511;-72
2021/10/09 08:39:51;;;;;;;7.00;3.90;;;;;;;10.01;36.36;101660.80;1696828;83;21463;-71
2021/10/09 08:42:17;;;;;;;7.92;3.62;;;;;;;10.08;35.62;101660.31;1725069;82;21094;-70
2021/10/09 08:44:43;;;;;;;14.78;3.85;;;;;;;10.15;35.51;101660.36;1734328;82;20930;-72
2021/10/09 08:47:12;;;;;;;14.18;5.42;;;;;;;10.22;35.00;101658.04;1703753;83;21094;-72
2021/10/09 08:49:39;;;;;;;7.90;3.62;;;;;;;10.29;33.62;101652.20;1705077;82;20982;-74
2021/10/09 08:52:05;;;;;;;11.15;3.83;;;;;;;10.32;34.08;101654.47;1713283;83;21012;-71
2021/10/09 08:54:40;;;;;;;9.23;3.98;;;;;;;10.43;34.01;101657.95;1715469;83;21511;-71
2021/10/09 08:57:16;;;;;;;9.68;3.08;;;;;;;10.56;33.58;101659.02;1694480;82;21055;-71
2021/10/09 08:59:56;;;;;;;4.20;3.22;;;;;;;10.66;33.30;101650.05;1710980;82;21151;-70
2021/10/09 09:02:27;;;;;;;19.62;3.85;;;;;;;10.73;33.44;101653.60;1716811;82;21017;-69
2021/10/09 09:27:27;;;;;;;6.75;3.30;;;;;;;11.48;32.24;101641.67;1698668;82;21005;-70
2021/10/09 09:40:40;;;;;;;3.47;2.85;;;;;;;11.85;30.67;101637.50;1648988;86;21068;-70
2021/10/09 09:43:06;;;;;;;8.50;3.30;;;;;;;11.90;30.58;101639.87;1703450;84;21052;-70
2021/10/09 09:45:33;;;;;;;9.75;4.03;;;;;;;11.89;30.56;101634.20;1676675;84;21588;-69
2021/10/09 09:48:01;;;;;;;14.83;3.20;;;;;;;11.92;30.59;101632.94;1667223;85;21111;-69
2021/10/09 09:50:28;;;;;;;5.65;2.52;;;;;;;11.94;29.85;101630.88;1667233;84;21021;-69
2021/10/09 09:52:54;;;;;;;5.67;2.60;;;;;;;11.89;29.17;101627.98;1707201;84;21025;-69
2021/10/09 09:55:21;;;;;;;4.22;3.05;;;;;;;11.84;29.53;101625.91;1691465;84;21126;-71
2021/10/09 09:57:48;;;;;;;8.60;3.87;;;;;;;11.88;29.65;101626.31;1699824;84;21014;-69
2021/10/09 10:00:16;;;;;;;4.62;3.37;;;;;;;11.95;29.22;101627.94;1705012;84;21279;-71
2021/10/09 10:02:54;;;;;;;7.72;2.92;;;;;;;12.02;29.01;101628.77;1682738;84;21001;-73
2021/10/09 10:05:28;;;;;;;5.53;2.60;;;;;;;12.10;28.93;101619.09;1672938;84;21014;-72
2021/10/09 10:07:56;;;;;;;6.15;2.62;;;;;;;12.20;28.74;101619.47;1730088;82;21005;-73
2021/10/09 10:10:23;;;;;;;10.55;3.77;;;;;;;12.25;28.60;101614.78;1744063;82;21005;-73
2021/10/09 10:12:55;;;;;;;10.48;3.20;;;;;;;12.28;28.55;101618.94;1657253;85;21166;-71
2021/10/09 10:15:28;;;;;;;9.88;3.17;;;;;;;12.24;28.36;101613.11;1714384;83;20901;-70
2021/10/09 10:17:54;;;;;;;3.95;3.00;;;;;;;12.27;28.76;101619.45;1676851;84;21063;-71
2021/10/09 10:20:24;;;;;;;9.35;3.12;;;;;;;12.29;28.42;101613.83;1701249;83;20970;-73
2021/10/09 10:22:54;;;;;;;7.72;3.00;;;;;;;12.18;28.00;101608.59;1689535;84;21002;-71
2021/10/09 10:25:29;;;;;;;8.70;3.02;;;;;;;12.11;27.82;101603.22;1661011;85;21200;-70
2021/10/09 10:28:09;;;;;;;3.60;2.87;;;;;;;12.09;27.81;101608.50;1681956;84;21004;-73
2021/10/09 10:30:41;;;;;;;5.62;3.50;;;;;;;12.14;28.04;101608.69;1672667;84;20997;-70
2021/10/09 10:33:18;;;;;;;9.68;2.80;;;;;;;12.20;27.78;101615.42;1639207;87;22605;-72
2021/10/09 10:35:49;;;;;;;6.87;3.05;;;;;;;12.18;27.64;101605.35;1646612;85;21012;-71
2021/10/09 10:38:34;;;;;;;6.03;2.72;;;;;;;12.14;27.92;101601.42;1626244;86;21344;-72
2021/10/09 10:41:00;;;;;;;10.30;3.20;;;;;;;12.22;28.09;101601.73;1682718;84;21005;-68
2021/10/09 10:46:46;;;;;;;4.15;2.60;;;;;;;12.37;28.45;101595.55;1655983;86;21127;-67
2021/10/09 10:49:23;;;;;;;6.62;2.98;;;;;;;12.36;27.33;101591.70;1635000;86;21057;-70
2021/10/09 10:52:11;;;;;;;12.28;2.87;;;;;;;12.40;27.76;101595.62;1683999;85;21010;-70
2021/10/09 10:57:03;;;;;;;6.35;3.42;;;;;;;12.55;27.50;101578.63;1655695;86;21114;-69
2021/10/09 10:59:46;;;;;;;5.10;2.87;;;;;;;12.59;27.13;101584.72;1686221;84;21600;-72
2021/10/09 11:02:25;;;;;;;;;;;;;;;12.54;26.78;101589.11;1658606;86;21500;-70
2021/10/09 11:05:13;;;;;;;6.42;3.98;;;;;;;12.42;27.03;101590.30;1679652;85;21257;-70
2021/10/09 11:07:43;;;;;;;9.65;3.37;;;;;;;12.46;27.26;101585.32;1634505;85;21128;-73
2021/10/09 11:10:18;;;;;;;9.40;3.25;;;;;;;12.56;27.09;101584.34;1683956;85;21006;-75
2021/10/09 11:12:50;;;;;;;12.25;3.30;;;;;;;12.65;27.04;101577.11;1672086;85;21506;-75
2021/10/09 11:15:23;;;;;;;6.37;3.22;;;;;;;12.78;27.03;101582.11;1631261;86;21072;-73
2021/10/09 11:18:01;;;;;;;5.22;3.00;;;;;;;12.89;27.01;101573.31;1691420;84;21167;-72
2021/10/09 11:20:35;;;;;;;12.15;5.55;;;;;;;13.08;26.91;101568.28;1700085;84;21060;-73
2021/10/09 11:23:11;;;;;;;6.92;3.60;;;;;;;13.26;26.67;101562.95;1633820;86;21592;-71
2021/10/09 11:25:40;;;;;;;3.30;2.60;;;;;;;13.39;26.38;101561.47;1625879;86;21636;-70
2021/10/09 11:28:25;;;;;;;6.03;2.60;;;;;;;13.49;26.01;101565.02;1659505;86;21016;-71
2021/10/09 11:30:51;;;;;;;2.80;2.60;;;;;;;13.54;26.53;101559.77;1644593;86;22266;-70
2021/10/09 11:33:23;;;;;;;5.00;3.85;;;;;;;13.45;25.50;101563.30;1672467;85;20969;-76
2021/10/09 11:35:50;;;;;;;4.70;2.30;;;;;;;13.28;25.99;101556.81;1669807;85;21526;-71
2021/10/09 11:38:23;;;;;;;6.30;2.87;;;;;;;13.25;26.04;101560.47;1657565;85;21009;-73
2021/10/09 11:43:27;;;;;;;4.90;3.17;;;;;;;13.30;26.62;101556.58;1683310;85;23314;-69
2021/10/09 11:45:55;;;;;;;5.15;2.70;;;;;;;13.39;26.64;101559.30;1702415;84;21020;-69
2021/10/09 11:54:24;;;;;;;10.93;3.08;;;;;;;13.57;25.31;101553.94;1653223;85;21065;-71
2021/10/09 11:56:43;;;;;;;3.80;2.60;;;;;;;13.52;25.43;101547.02;1669725;85;21247;-69
2021/10/09 11:59:10;;;;;;;7.28;2.80;;;;;;;13.58;25.28;101543.39;1680274;85;21036;-70
2021/10/09 12:01:47;;;;;;;6.25;3.00;;;;;;;13.67;25.08;101544.75;1640804;86;21529;-70
2021/10/09 12:04:23;;;;;;;3.92;3.52;;;;;;;13.70;25.29;101539.44;1620411;87;21124;-70
2021/10/09 12:07:00;;;;;;;5.65;2.70;;;;;;;13.67;25.74;101542.05;1658938;85;21049;-71
2021/10/09 12:09:47;;;;;;;4.97;3.05;;;;;;;13.70;25.65;101534.03;1674869;84;21483;-70
2021/10/09 12:12:23;;;;;;;3.83;2.58;;;;;;;13.77;25.42;101536.94;1658650;85;20919;-70
2021/10/09 12:14:52;;;;;;;3.22;2.92;;;;;;;13.83;24.76;101526.58;1674484;84;21061;-68
2021/10/09 12:17:20;;;;;;;4.78;2.42;;;;;;;13.85;24.86;101535.83;1675929;84;21060;-69
2021/10/09 12:19:59;;;;;;;5.47;3.08;;;;;;;13.86;25.04;101531.53;1714989;83;21096;-67
2021/10/09 12:22:25;;;;;;;9.75;3.47;;;;;;;13.83;25.16;101531.99;1715133;83;21113;-68
2021/10/09 12:24:53;;;;;;;4.90;3.25;;;;;;;13.84;25.59;101530.94;1671298;83;20941;-69
2021/10/09 12:27:26;;;;;;;9.18;3.70;;;;;;;13.87;25.30;101532.36;1726707;82;21008;-70
2021/10/09 12:30:12;;;;;;;10.15;3.20;;;;;;;13.80;25.55;101527.56;1699284;84;21575;-69
2021/10/09 12:32:45;;;;;;;11.80;3.25;;;;;;;13.76;25.42;101520.44;1671431;83;21527;-71
2021/10/09 12:35:22;;;;;;;4.05;2.80;;;;;;;13.81;25.50;101520.56;1694276;83;21021;-68
2021/10/09 12:38:03;;;;;;;4.42;3.60;;;;;;;13.90;25.00;101512.46;1710720;83;21028;-71
2021/10/09 12:40:40;;;;;;;6.00;3.83;;;;;;;13.98;25.01;101519.43;1694111;83;21030;-72
2021/10/09 12:43:10;;;;;;;6.30;2.98;;;;;;;14.04;24.79;101527.17;1714641;83;21565;-71
2021/10/09 12:45:35;;;;;;;3.20;2.70;;;;;;;14.02;24.48;101511.67;1693554;83;21022;-71
2021/10/09 12:48:02;;;;;;;9.05;5.00;;;;;;;14.00;24.76;101517.86;1729446;82;21330;-73
2021/10/09 12:50:35;;;;;;;6.80;4.03;;;;;;;14.05;24.56;101513.42;1742098;82;21011;-71
2021/10/09 12:53:02;;;;;;;7.97;5.15;;;;;;;13.94;24.74;101517.72;1727913;82;21004;-71
2021/10/09 12:55:33;;;;;;;4.58;3.17;;;;;;;13.92;25.08;101510.86;1737477;82;21537;-72
2021/10/09 12:58:02;;;;;;;4.50;3.58;;;;;;;14.02;24.80;101521.14;1750231;81;21648;-69
2021/10/09 13:00:29;;;;;;;13.45;3.00;;;;;;;14.04;24.67;101515.00;1730036;82;21773;-69
2021/10/09 13:02:57;;;;;;;5.67;2.92;;;;;;;13.95;24.54;101507.20;1746788;81;21045;-68
2021/10/09 13:05:27;;;;;;;18.50;3.30;;;;;;;14.00;24.67;101498.40;1715142;82;21708;-69
2021/10/09 13:07:54;;;;;;;13.90;3.10;;;;;;;14.08;24.13;101493.19;1737946;82;21053;-69
2021/10/09 13:10:21;;;;;;;3.62;2.50;;;;;;;14.21;24.46;101495.70;1717109;82;21584;-70
2021/10/09 13:12:49;;;;;;;9.60;3.90;;;;;;;14.36;24.34;101496.97;1738447;82;21128;-70
2021/10/09 13:15:19;;;;;;;9.48;2.87;;;;;;;14.48;24.41;101490.78;1720977;82;21016;-68
2021/10/09 13:17:48;;;;;;;6.62;3.30;;;;;;;14.57;24.39;101494.80;1737020;82;21527;-71
2021/10/09 13:20:16;;;;;;;2.92;2.60;;;;;;;14.53;24.51;101500.39;1718951;82;20994;-71
2021/10/09 13:22:43;;;;;;;5.78;3.35;;;;;;;14.53;24.58;101492.27;1719658;83;21607;-71
2021/10/09 13:25:09;;;;;;;6.53;4.37;;;;;;;14.39;24.61;101497.03;1691111;84;22035;-70
2021/10/09 13:27:35;;;;;;;6.95;4.15;;;;;;;14.32;24.55;101484.93;1691890;83;21501;-70
2021/10/09 13:30:04;;;;;;;6.90;4.10;;;;;;;14.33;24.61;101485.23;1691137;84;21025;-70
2021/10/09 13:32:32;;;;;;;18.85;4.12;;;;;;;14.31;24.63;101487.33;1691332;84;20952;-71
2021/10/09 13:34:58;;;;;;;6.33;3.70;;;;;;;14.21;24.66;101485.70;1717708;83;21095;-71
2021/10/09 13:37:26;;;;;;;7.12;3.77;;;;;;;14.12;25.00;101482.20;1720238;82;21149;-69
2021/10/09 13:39:54;;;;;;;5.67;3.55;;;;;;;14.10;25.30;101489.17;1690898;83;21055;-71
2021/10/09 13:42:20;;;;;;;7.35;3.42;;;;;;;14.22;24.95;101479.23;1719932;82;21502;-75